Time;durP1;ratioP1;P1;durP2;ratioP2;P2;SDS_P1;SDS_P2;PMS_P1;PMS_P2;Temp;Humidity;BMP_temperature;BMP_pressure;BME280_temperature;BME280_humidity;BME280_pressure;Samples;Min_cycle;Max_cycle;Signal;HPM_P1;HPM_P2
2023/07/07 00:02:48;;;;;;;0.10;0.10;;;;;;;-145.06;100.00;63404.56;10329933;28;20026;-80
2023/07/07 00:07:51;;;;;;;0.10;0.10;;;;;;;-145.06;100.00;63404.56;10343168;28;20249;-80
2023/07/07 00:12:51;;;;;;;0.08;0.08;;;;;;;-145.06;100.00;63404.56;10347042;28;20031;-80
2023/07/07 00:17:51;;;;;;;0.10;0.10;;;;;;;-145.06;100.00;63404.56;10328775;28;20038;-80
2023/07/07 00:22:55;;;;;;;0.00;0.00;;;;;;;-145.06;100.00;63404.56;10345101;28;20069;-80
2023/07/07 00:27:55;;;;;;;0.10;0.10;;;;;;;-145.06;100.00;63404.56;10333743;28;20040;-80
2023/07/07 00:32:55;;;;;;;0.10;0.10;;;;;;;-145.06;100.00;63404.56;10348062;28;20152;-81
2023/07/07 00:37:56;;;;;;;0.10;0.10;;;;;;;-145.06;100.00;63404.56;10331634;28;20046;-80
2023/07/07 00:42:56;;;;;;;0.08;0.08;;;;;;;-145.06;100.00;63404.56;10340909;28;20026;-80
2023/07/07 00:48:03;;;;;;;0.10;0.10;;;;;;;-145.06;100.00;63404.56;10341839;28;20492;-80
2023/07/07 00:53:04;;;;;;;0.10;0.10;;;;;;;-145.06;100.00;63404.56;10340058;28;20109;-80
2023/07/07 00:58:07;;;;;;;0.00;0.00;;;;;;;-145.06;100.00;63404.56;10322196;28;20054;-80
2023/07/07 01:03:13;;;;;;;0.10;0.10;;;;;;;-145.06;100.00;63404.56;10339085;28;20030;-79
2023/07/07 01:08:13;;;;;;;0.10;0.10;;;;;;;-145.06;100.00;63404.56;10341614;28;20034;-80
2023/07/07 01:13:14;;;;;;;0.10;0.10;;;;;;;-145.06;100.00;63404.56;10389002;23;20046;-75
2023/07/07 01:18:42;;;;;;;0.10;0.10;;;;;;;-145.06;100.00;63404.56;10387045;28;20104;-75
2023/07/07 01:24:09;;;;;;;0.00;0.00;;;;;;;-145.06;100.00;63404.56;10382554;28;20037;-75
2023/07/07 01:29:15;;;;;;;0.10;0.10;;;;;;;-145.06;100.00;63404.56;10384904;28;20077;-76
2023/07/07 01:34:16;;;;;;;0.10;0.10;;;;;;;-145.06;100.00;63404.56;10392412;28;20030;-76
2023/07/07 01:39:17;;;;;;;0.10;0.10;;;;;;;-145.06;100.00;63404.56;10397740;28;20033;-75
2023/07/07 01:44:25;;;;;;;0.10;0.10;;;;;;;-145.06;100.00;63404.56;10398111;28;20022;-76
2023/07/07 01:49:31;;;;;;;0.10;0.10;;;;;;;-145.06;100.00;63404.56;10394306;28;20037;-76
2023/07/07 01:54:36;;;;;;;0.10;0.10;;;;;;;-145.06;100.00;63404.56;10391848;28;20490;-76
2023/07/07 01:59:39;;;;;;;0.10;0.10;;;;;;;-145.06;100.00;63404.56;10388505;28;20112;-76
2023/07/07 02:04:39;;;;;;;0.05;0.05;;;;;;;-145.06;100.00;63404.56;10394373;28;20033;-76
2023/07/07 02:09:40;;;;;;;0.10;0.10;;;;;;;-145.06;100.00;63404.56;10405298;28;20044;-76
2023/07/07 02:14:40;;;;;;;0.10;0.10;;;;;;;-145.06;100.00;63404.56;10389237;28;20028;-76
2023/07/07 02:19:41;;;;;;;0.10;0.10;;;;;;;-145.06;100.00;63404.56;10388661;28;20152;-76
2023/07/07 02:24:42;;;;;;;0.10;0.10;;;;;;;-145.06;100.00;63404.56;10400487;28;20030;-76
2023/07/07 02:29:42;;;;;;;0.10;0.10;;;;;;;-145.06;100.00;63404.56;10400023;28;20033;-76
2023/07/07 02:34:47;;;;;;;0.10;0.10;;;;;;;-145.06;100.00;63404.56;10391725;28;20379;-76
2023/07/07 02:39:47;;;;;;;0.10;0.10;;;;;;;-145.06;100.00;63404.56;10398046;28;20301;-76
2023/07/07 02:44:47;;;;;;;0.10;0.10;;;;;;;-145.06;100.00;63404.56;10398606;28;20026;-76
2023/07/07 02:49:48;;;;;;;0.08;0.08;;;;;;;-145.06;100.00;63404.56;10390419;28;20029;-76
2023/07/07 02:54:48;;;;;;;0.10;0.10;;;;;;;-145.06;100.00;63404.56;10391275;28;20084;-75
2023/07/07 02:59:49;;;;;;;0.10;0.10;;;;;;;-145.06;100.00;63404.56;10396950;28;20398;-76
2023/07/07 03:04:50;;;;;;;0.10;0.10;;;;;;;-145.06;100.00;63404.56;10395875;28;20161;-76
2023/07/07 03:09:50;;;;;;;0.10;0.10;;;;;;;-145.06;100.00;63404.56;10395835;28;20038;-76
2023/07/07 03:14:56;;;;;;;0.10;0.10;;;;;;;-145.06;100.00;63404.56;10392685;28;20446;-76
2023/07/07 03:19:56;;;;;;;0.00;0.00;;;;;;;-145.06;100.00;63404.56;10392046;28;20073;-76
2023/07/07 03:24:57;;;;;;;0.10;0.10;;;;;;;-145.06;100.00;63404.56;10394107;28;20490;-76
2023/07/07 03:29:57;;;;;;;0.10;0.10;;;;;;;-145.06;100.00;63404.56;10396227;28;20437;-76
2023/07/07 03:34:58;;;;;;;0.10;0.10;;;;;;;-145.06;100.00;63404.56;10400976;28;20486;-76
2023/07/07 03:39:58;;;;;;;0.10;0.10;;;;;;;-145.06;100.00;63404.56;10404524;28;20040;-76
2023/07/07 03:44:59;;;;;;;0.08;0.08;;;;;;;-145.06;100.00;63404.56;10394674;28;20394;-76
2023/07/07 03:50:00;;;;;;;0.10;0.10;;;;;;;-145.06;100.00;63404.56;10398207;28;20061;-76
2023/07/07 03:55:00;;;;;;;0.10;0.10;;;;;;;-145.06;100.00;63404.56;10384829;28;20057;-76
2023/07/07 04:00:02;;;;;;;0.10;0.10;;;;;;;-145.06;100.00;63404.56;10383928;28;20033;-76
2023/07/07 04:05:02;;;;;;;0.10;0.10;;;;;;;-145.06;100.00;63404.56;10404013;28;20026;-76
2023/07/07 04:10:04;;;;;;;0.10;0.10;;;;;;;-145.06;100.00;63404.56;10388135;28;20029;-76
2023/07/07 04:15:05;;;;;;;0.10;0.10;;;;;;;-145.06;100.00;63404.56;10388063;28;20030;-76
2023/07/07 04:20:06;;;;;;;0.10;0.10;;;;;;;-145.06;100.00;63404.56;10388240;28;20096;-76
2023/07/07 04:25:14;;;;;;;0.10;0.10;;;;;;;-145.06;100.00;63404.56;10385910;28;20461;-76
2023/07/07 04:30:14;;;;;;;0.08;0.08;;;;;;;-145.06;100.00;63404.56;10399902;28;20041;-76
2023/07/07 04:35:14;;;;;;;0.00;0.00;;;;;;;-145.06;100.00;63404.56;10384674;28;20037;-76
2023/07/07 04:40:15;;;;;;;0.10;0.10;;;;;;;-145.06;100.00;63404.56;10394331;28;20080;-76
2023/07/07 04:45:15;;;;;;;0.00;0.00;;;;;;;-145.06;100.00;63404.56;10393436;28;20026;-76
2023/07/07 04:50:16;;;;;;;0.00;0.00;;;;;;;-145.06;100.00;63404.56;10392443;28;20077;-77
2023/07/07 04:55:16;;;;;;;0.00;0.00;;;;;;;-145.06;100.00;63404.56;10390837;28;20022;-76
2023/07/07 05:00:17;;;;;;;0.00;0.00;;;;;;;-145.06;100.00;63404.56;10390447;28;20402;-77
2023/07/07 05:05:17;;;;;;;0.03;0.03;;;;;;;-145.06;100.00;63404.56;10392964;28;20026;-76
2023/07/07 05:10:17;;;;;;;0.10;0.10;;;;;;;-145.06;100.00;63404.56;10393806;28;20558;-74
2023/07/07 05:15:18;;;;;;;0.10;0.10;;;;;;;-145.06;100.00;63404.56;10399484;28;20291;-74
2023/07/07 05:20:18;;;;;;;0.00;0.00;;;;;;;-145.06;100.00;63404.56;10391596;28;20030;-75
2023/07/07 05:25:18;;;;;;;0.10;0.10;;;;;;;-145.06;100.00;63404.56;10391060;28;20098;-75
2023/07/07 05:30:18;;;;;;;0.00;0.00;;;;;;;-145.06;100.00;63404.56;10385428;28;20057;-75
2023/07/07 05:35:19;;;;;;;0.10;0.10;;;;;;;-145.06;100.00;63404.56;10388270;28;20025;-74
2023/07/07 05:40:19;;;;;;;0.10;0.10;;;;;;;-145.06;100.00;63404.56;10386339;28;20450;-76
2023/07/07 05:45:21;;;;;;;0.10;0.10;;;;;;;-145.06;100.00;63404.56;10385640;28;20025;-76
2023/07/07 05:50:21;;;;;;;0.00;0.00;;;;;;;-145.06;100.00;63404.56;10388903;28;20034;-76
2023/07/07 05:55:29;;;;;;;0.10;0.10;;;;;;;-145.06;100.00;63404.56;10377013;28;20494;-76
2023/07/07 06:00:32;;;;;;;0.10;0.10;;;;;;;-145.06;100.00;63404.56;10391101;28;20033;-76
2023/07/07 06:05:33;;;;;;;0.10;0.10;;;;;;;-145.06;100.00;63404.56;10397209;28;20087;-76
2023/07/07 06:10:33;;;;;;;0.10;0.10;;;;;;;-145.06;100.00;63404.56;10384056;28;20525;-76
2023/07/07 06:15:34;;;;;;;0.10;0.10;;;;;;;-145.06;100.00;63404.56;10399294;28;20021;-77
2023/07/07 06:20:34;;;;;;;0.10;0.10;;;;;;;-145.06;100.00;63404.56;10386618;28;20041;-78
2023/07/07 06:25:35;;;;;;;0.10;0.10;;;;;;;-145.06;100.00;63404.56;10383435;28;20029;-77
2023/07/07 06:30:35;;;;;;;0.10;0.10;;;;;;;-145.06;100.00;63404.56;10389297;28;20055;-77
2023/07/07 06:35:36;;;;;;;;;;;;;;;-145.06;100.00;63404.56;10410516;28;20030;-79
2023/07/07 06:40:37;;;;;;;0.03;0.03;;;;;;;-145.06;100.00;63404.56;10396277;28;20286;-77
2023/07/07 06:45:37;;;;;;;0.10;0.10;;;;;;;-145.06;100.00;63404.56;10395305;28;20037;-77
2023/07/07 06:50:40;;;;;;;0.10;0.10;;;;;;;-145.06;100.00;63404.56;10398487;28;20093;-77
2023/07/07 06:55:40;;;;;;;0.10;0.10;;;;;;;-145.06;100.00;63404.56;10405698;28;20280;-78
2023/07/07 07:00:43;;;;;;;0.10;0.10;;;;;;;-145.06;100.00;63404.56;10394166;28;20116;-77
2023/07/07 07:05:43;;;;;;;0.10;0.10;;;;;;;-145.06;100.00;63404.56;10387978;28;20022;-77
2023/07/07 07:15:46;;;;;;;0.10;0.10;;;;;;;-145.06;100.00;63404.56;10429106;28;20525;-81
2023/07/07 07:20:54;;;;;;;0.10;0.10;;;;;;;-145.06;100.00;63404.56;10446677;28;20085;-81
2023/07/07 07:25:54;;;;;;;0.10;0.10;;;;;;;-145.06;100.00;63404.56;10432014;28;20082;-81
2023/07/07 07:30:54;;;;;;;0.10;0.10;;;;;;;-145.06;100.00;63404.56;10433427;28;20470;-81
2023/07/07 07:35:55;;;;;;;0.03;0.03;;;;;;;-145.06;100.00;63404.56;10433521;28;20042;-81
2023/07/07 07:40:55;;;;;;;0.10;0.10;;;;;;;-145.06;100.00;63404.56;10444364;28;20409;-81
2023/07/07 07:45:55;;;;;;;0.10;0.10;;;;;;;-145.06;100.00;63404.56;10440807;28;20405;-81
2023/07/07 07:50:56;;;;;;;0.10;0.10;;;;;;;-145.06;100.00;63404.56;10440981;28;20256;-80
2023/07/07 07:55:57;;;;;;;0.10;0.10;;;;;;;-145.06;100.00;63404.56;10436730;28;20056;-81
2023/07/07 08:00:57;;;;;;;0.10;0.10;;;;;;;-145.06;100.00;63404.56;10441698;28;20029;-81
2023/07/07 08:05:57;;;;;;;0.10;0.10;;;;;;;-145.06;100.00;63404.56;10435154;28;20549;-80
2023/07/07 08:10:57;;;;;;;0.10;0.10;;;;;;;-145.06;100.00;63404.56;10425375;28;20029;-80
2023/07/07 08:15:58;;;;;;;0.10;0.10;;;;;;;-145.06;100.00;63404.56;10432931;28;20034;-80
2023/07/07 08:20:58;;;;;;;0.10;0.10;;;;;;;-145.06;100.00;63404.56;10445602;28;20268;-80
2023/07/07 08:25:59;;;;;;;0.05;0.05;;;;;;;-145.06;100.00;63404.56;10441500;28;20029;-79
2023/07/07 08:30:59;;;;;;;0.10;0.10;;;;;;;-145.06;100.00;63404.56;10425839;28;20040;-80
2023/07/07 08:36:00;;;;;;;;;;;;;;;-145.06;100.00;63404.56;10427028;28;20028;-80
2023/07/07 08:41:00;;;;;;;0.00;0.00;;;;;;;-145.06;100.00;63404.56;10438477;28;19917;-80
2023/07/07 08:46:00;;;;;;;;;;;;;;;-145.06;100.00;63404.56;10427843;28;20130;-79
2023/07/07 08:51:07;;;;;;;0.10;0.10;;;;;;;-145.06;100.00;63404.56;10426520;28;19913;-80
2023/07/07 08:56:19;;;;;;;0.10;0.10;;;;;;;-145.06;100.00;63404.56;10417969;28;20126;-79
2023/07/07 09:01:34;;;;;;;0.10;0.10;;;;;;;-145.06;100.00;63404.56;10438959;28;20072;-80
2023/07/07 09:06:51;;;;;;;0.10;0.10;;;;;;;-145.06;100.00;63404.56;10433509;28;20034;-80
2023/07/07 09:12:17;;;;;;;0.10;0.10;;;;;;;-145.06;100.00;63404.56;10417637;28;20029;-79
2023/07/07 09:17:29;;;;;;;0.08;0.08;;;;;;;-145.06;100.00;63404.56;10420776;28;20194;-79
2023/07/07 09:22:40;;;;;;;0.10;0.10;;;;;;;-145.06;100.00;63404.56;10428429;28;20017;-81
2023/07/07 09:27:47;;;;;;;0.10;0.10;;;;;;;-145.06;100.00;63404.56;10431625;28;20038;-80
2023/07/07 09:32:48;;;;;;;0.10;0.10;;;;;;;-145.06;100.00;63404.56;10423881;28;20021;-79
2023/07/07 09:38:15;;;;;;;0.00;0.00;;;;;;;-145.06;100.00;63404.56;10426259;28;20116;-80
2023/07/07 09:43:18;;;;;;;0.00;0.00;;;;;;;-145.06;100.00;63404.56;10419259;28;20040;-79
2023/07/07 09:48:26;;;;;;;0.10;0.10;;;;;;;-145.06;100.00;63404.56;10429829;28;20179;-80
2023/07/07 09:53:36;;;;;;;0.00;0.00;;;;;;;-145.06;100.00;63404.56;10435249;28;20017;-80
2023/07/07 09:58:54;;;;;;;0.00;0.00;;;;;;;-145.06;100.00;63404.56;10435028;28;20040;-81
2023/07/07 10:03:55;;;;;;;0.10;0.10;;;;;;;-145.06;100.00;63404.56;10426186;28;20546;-80
2023/07/07 10:08:55;;;;;;;0.00;0.00;;;;;;;-145.06;100.00;63404.56;10430524;28;20089;-79
2023/07/07 10:13:56;;;;;;;0.10;0.10;;;;;;;-145.06;100.00;63404.56;10427305;28;20079;-79
2023/07/07 10:19:00;;;;;;;0.00;0.00;;;;;;;-145.06;100.00;63404.56;10424719;28;20099;-78
2023/07/07 10:24:01;;;;;;;0.00;0.00;;;;;;;-145.06;100.00;63404.56;10438762;28;20562;-78
2023/07/07 10:29:04;;;;;;;0.10;0.10;;;;;;;-145.06;100.00;63404.56;10434213;28;20067;-79
2023/07/07 10:34:21;;;;;;;0.00;0.00;;;;;;;-145.06;100.00;63404.56;10430854;28;20017;-79
2023/07/07 10:39:23;;;;;;;0.00;0.00;;;;;;;-145.06;100.00;63404.56;10444448;28;20061;-79
2023/07/07 10:44:26;;;;;;;0.10;0.10;;;;;;;-145.06;100.00;63404.56;10438070;28;20029;-79
2023/07/07 10:49:26;;;;;;;0.10;0.10;;;;;;;-145.06;100.00;63404.56;10431716;28;20041;-79
2023/07/07 10:54:38;;;;;;;0.10;0.10;;;;;;;-145.06;100.00;63404.56;10433991;28;20443;-79
2023/07/07 10:59:54;;;;;;;;;;;;;;;-145.06;100.00;63404.56;10435759;28;20040;-79
2023/07/07 11:05:00;;;;;;;0.00;0.00;;;;;;;-145.06;100.00;63404.56;10424166;28;19915;-80
2023/07/07 11:10:43;;;;;;;0.10;0.10;;;;;;;-145.06;100.00;63404.56;10434520;28;20040;-79
2023/07/07 11:16:25;;;;;;;0.00;0.00;;;;;;;-145.06;100.00;63404.56;10421778;28;20026;-79
2023/07/07 11:21:58;;;;;;;0.00;0.00;;;;;;;-145.06;100.00;63404.56;10443329;28;20036;-80
2023/07/07 11:27:08;;;;;;;0.00;0.00;;;;;;;-145.06;100.00;63404.56;10446528;28;20035;-80
2023/07/07 11:32:25;;;;;;;0.10;0.10;;;;;;;-145.06;100.00;63404.56;10440379;28;20040;-80
2023/07/07 11:37:46;;;;;;;0.10;0.10;;;;;;;-145.06;100.00;63404.56;10440284;28;20037;-79
2023/07/07 11:43:08;;;;;;;0.00;0.00;;;;;;;-145.06;100.00;63404.56;10432036;28;20079;-80
2023/07/07 11:48:33;;;;;;;0.10;0.10;;;;;;;-145.06;100.00;63404.56;10439814;28;20454;-80
2023/07/07 11:53:57;;;;;;;0.00;0.00;;;;;;;-145.06;100.00;63404.56;10448247;28;20420;-79
2023/07/07 11:59:34;;;;;;;0.00;0.00;;;;;;;-145.06;100.00;63404.56;10438342;28;20032;-80
2023/07/07 12:04:43;;;;;;;0.00;0.00;;;;;;;-145.06;100.00;63404.56;10437626;28;20072;-79
2023/07/07 12:09:51;;;;;;;0.00;0.00;;;;;;;-145.06;100.00;63404.56;10445364;28;20049;-80
2023/07/07 12:15:02;;;;;;;0.00;0.00;;;;;;;-145.06;100.00;63404.56;10429635;28;20158;-79
2023/07/07 12:20:29;;;;;;;0.00;0.00;;;;;;;-145.06;100.00;63404.56;10423948;28;20037;-78
2023/07/07 12:25:29;;;;;;;0.10;0.10;;;;;;;-145.06;100.00;63404.56;10421010;28;20021;-80
2023/07/07 12:30:33;;;;;;;0.10;0.10;;;;;;;-145.06;100.00;63404.56;10432055;28;20112;-79
2023/07/07 12:35:46;;;;;;;0.00;0.00;;;;;;;-145.06;100.00;63404.56;10427854;28;20033;-79
2023/07/07 12:40:48;;;;;;;0.10;0.10;;;;;;;-145.06;100.00;63404.56;10436890;28;20032;-80
2023/07/07 12:45:51;;;;;;;0.10;0.10;;;;;;;-145.06;100.00;63404.56;10432300;28;20020;-78
2023/07/07 12:50:58;;;;;;;0.10;0.10;;;;;;;-145.06;100.00;63404.56;10437284;28;20040;-80
2023/07/07 12:56:06;;;;;;;0.10;0.10;;;;;;;-145.06;100.00;63404.56;10432159;28;20084;-79
2023/07/07 13:01:19;;;;;;;0.00;0.00;;;;;;;-145.06;100.00;63404.56;10435757;28;20041;-79
2023/07/07 13:06:32;;;;;;;0.00;0.00;;;;;;;-145.06;100.00;63404.56;10438511;28;20029;-79
2023/07/07 13:11:39;;;;;;;0.10;0.10;;;;;;;-145.06;100.00;63404.56;10443629;23;20056;-79
2023/07/07 13:16:39;;;;;;;0.00;0.00;;;;;;;-145.06;100.00;63404.56;10436728;28;20129;-79
2023/07/07 13:21:40;;;;;;;0.00;0.00;;;;;;;-145.06;100.00;63404.56;10432007;28;20589;-77
2023/07/07 13:26:40;;;;;;;0.00;0.00;;;;;;;-145.06;100.00;63404.56;10443888;28;20037;-79
2023/07/07 13:31:42;;;;;;;0.00;0.00;;;;;;;-145.06;100.00;63404.56;10450043;28;20029;-79
2023/07/07 13:36:43;;;;;;;0.00;0.00;;;;;;;-145.06;100.00;63404.56;10432982;28;20044;-79
2023/07/07 13:41:44;;;;;;;0.00;0.00;;;;;;;-145.06;100.00;63404.56;10447945;28;20261;-79
2023/07/07 13:46:49;;;;;;;0.00;0.00;;;;;;;-145.06;100.00;63404.56;10429913;28;20025;-79
2023/07/07 13:51:54;;;;;;;0.00;0.00;;;;;;;-145.06;100.00;63404.56;10425152;28;20040;-79
2023/07/07 13:57:05;;;;;;;0.00;0.00;;;;;;;-145.06;100.00;63404.56;10431300;28;20032;-79
2023/07/07 14:02:15;;;;;;;0.00;0.00;;;;;;;-145.06;100.00;63404.56;10433521;28;20032;-79
2023/07/07 14:07:19;;;;;;;0.00;0.00;;;;;;;-145.06;100.00;63404.56;10436111;28;20036;-78
2023/07/07 14:12:28;;;;;;;0.00;0.00;;;;;;;-145.06;100.00;63404.56;10440280;28;20103;-79
2023/07/07 14:17:39;;;;;;;0.00;0.00;;;;;;;-145.06;100.00;63404.56;10445421;28;20380;-79
2023/07/07 14:22:41;;;;;;;0.10;0.10;;;;;;;-145.06;100.00;63404.56;10428810;28;20446;-79
2023/07/07 14:27:43;;;;;;;0.00;0.00;;;;;;;-145.06;100.00;63404.56;10439771;28;20029;-80
2023/07/07 14:32:45;;;;;;;0.00;0.00;;;;;;;-145.06;100.00;63404.56;10429836;28;20033;-79
2023/07/07 14:37:55;;;;;;;0.10;0.10;;;;;;;-145.06;100.00;63404.56;10436312;28;20451;-79
2023/07/07 14:42:55;;;;;;;0.10;0.10;;;;;;;-145.06;100.00;63404.56;10432586;28;20108;-79
2023/07/07 14:47:56;;;;;;;0.00;0.00;;;;;;;-145.06;100.00;63404.56;10439155;28;20068;-78
2023/07/07 14:52:58;;;;;;;0.10;0.10;;;;;;;-145.06;100.00;63404.56;10422295;28;20022;-79
2023/07/07 14:58:02;;;;;;;0.10;0.10;;;;;;;-145.06;100.00;63404.56;10436035;28;20549;-79
2023/07/07 15:03:29;;;;;;;0.00;0.00;;;;;;;-145.06;100.00;63404.56;10439517;28;20029;-79
2023/07/07 15:08:29;;;;;;;0.00;0.00;;;;;;;-145.06;100.00;63404.56;10434550;28;20509;-79
2023/07/07 15:13:30;;;;;;;0.00;0.00;;;;;;;-145.06;100.00;63404.56;10445159;28;20030;-78
2023/07/07 15:18:31;;;;;;;0.00;0.00;;;;;;;-145.06;100.00;63404.56;10440203;28;20032;-78
2023/07/07 15:23:31;;;;;;;0.10;0.10;;;;;;;-145.06;100.00;63404.56;10420994;28;20022;-78
2023/07/07 15:28:31;;;;;;;0.00;0.00;;;;;;;-145.06;100.00;63404.56;10424752;28;20412;-78
2023/07/07 15:33:32;;;;;;;0.00;0.00;;;;;;;-145.06;100.00;63404.56;10437621;28;20032;-78
2023/07/07 15:38:41;;;;;;;0.00;0.00;;;;;;;-145.06;100.00;63404.56;10437169;28;20436;-78
2023/07/07 15:43:42;;;;;;;0.10;0.10;;;;;;;-145.06;100.00;63404.56;10431649;28;20496;-78
2023/07/07 15:48:42;;;;;;;0.00;0.00;;;;;;;-145.06;100.00;63404.56;10438014;28;20033;-78
2023/07/07 15:53:42;;;;;;;0.00;0.00;;;;;;;-145.06;100.00;63404.56;10439499;28;20374;-78
2023/07/07 15:58:42;;;;;;;0.00;0.00;;;;;;;-145.06;100.00;63404.56;10446248;28;20545;-78
2023/07/07 16:03:43;;;;;;;0.10;0.10;;;;;;;-145.06;100.00;63404.56;10428613;28;20528;-78
2023/07/07 16:08:43;;;;;;;0.00;0.00;;;;;;;-145.06;100.00;63404.56;10427548;28;20457;-79
2023/07/07 16:13:45;;;;;;;0.00;0.00;;;;;;;-145.06;100.00;63404.56;10439434;28;20509;-78
2023/07/07 16:18:45;;;;;;;0.00;0.00;;;;;;;-145.06;100.00;63404.56;10442274;28;20045;-78
2023/07/07 16:23:46;;;;;;;0.00;0.00;;;;;;;-145.06;100.00;63404.56;10428779;28;20025;-78
2023/07/07 16:28:46;;;;;;;0.08;0.08;;;;;;;-145.06;100.00;63404.56;10411942;28;20037;-78
2023/07/07 16:33:47;;;;;;;0.00;0.00;;;;;;;-145.06;100.00;63404.56;10435509;28;20033;-78
2023/07/07 16:38:49;;;;;;;0.00;0.00;;;;;;;-145.06;100.00;63404.56;10426720;28;20446;-79
2023/07/07 16:43:51;;;;;;;0.00;0.00;;;;;;;-145.06;100.00;63404.56;10440493;28;20041;-79
2023/07/07 16:48:52;;;;;;;0.00;0.00;;;;;;;-145.06;100.00;63404.56;10434704;28;20033;-78
2023/07/07 16:53:53;;;;;;;0.00;0.00;;;;;;;-145.06;100.00;63404.56;10435256;28;20033;-78
2023/07/07 16:58:54;;;;;;;0.00;0.00;;;;;;;-145.06;100.00;63404.56;10421526;28;20104;-77
2023/07/07 17:03:54;;;;;;;0.00;0.00;;;;;;;-145.06;100.00;63404.56;10428933;28;20115;-79
2023/07/07 17:08:56;;;;;;;0.00;0.00;;;;;;;-145.06;100.00;63404.56;10421247;28;20024;-78
2023/07/07 17:13:57;;;;;;;0.00;0.00;;;;;;;-145.06;100.00;63404.56;10406563;28;20033;-77
2023/07/07 17:19:00;;;;;;;0.00;0.00;;;;;;;-145.06;100.00;63404.56;10437867;28;20401;-78
2023/07/07 17:24:00;;;;;;;;;;;;;;;-145.06;100.00;63404.56;10425558;28;20083;-78
2023/07/07 17:29:00;;;;;;;0.10;0.10;;;;;;;-145.06;100.00;63404.56;10437578;28;19932;-78
2023/07/07 17:34:01;;;;;;;0.00;0.00;;;;;;;-145.06;100.00;63404.56;10418683;28;20029;-78
2023/07/07 17:39:01;;;;;;;0.00;0.00;;;;;;;-145.06;100.00;63404.56;10403464;28;20090;-77
2023/07/07 17:44:01;;;;;;;0.10;0.10;;;;;;;-145.06;100.00;63404.56;10398008;28;20025;-77
2023/07/07 17:49:09;;;;;;;0.00;0.00;;;;;;;-145.06;100.00;63404.56;10431243;28;20443;-76
2023/07/07 17:54:10;;;;;;;0.10;0.10;;;;;;;-145.06;100.00;63404.56;10422141;28;20033;-77
2023/07/07 17:59:19;;;;;;;0.00;0.00;;;;;;;-145.06;100.00;63404.56;10409412;28;20082;-76
2023/07/07 18:04:20;;;;;;;0.10;0.10;;;;;;;-145.06;100.00;63404.56;10425388;28;20029;-79
2023/07/07 18:09:20;;;;;;;0.00;0.00;;;;;;;-145.06;100.00;63404.56;10440885;28;20116;-78
2023/07/07 18:14:23;;;;;;;0.00;0.00;;;;;;;-145.06;100.00;63404.56;10427777;28;20455;-78
2023/07/07 18:19:23;;;;;;;0.10;0.10;;;;;;;-145.06;100.00;63404.56;10439347;28;20036;-78
2023/07/07 18:24:23;;;;;;;0.00;0.00;;;;;;;-145.06;100.00;63404.56;10427074;28;20075;-78
2023/07/07 18:29:24;;;;;;;0.00;0.00;;;;;;;-145.06;100.00;63404.56;10426897;28;20056;-78
2023/07/07 18:34:24;;;;;;;0.00;0.00;;;;;;;-145.06;100.00;63404.56;10415017;28;20098;-78
2023/07/07 18:39:27;;;;;;;0.00;0.00;;;;;;;-145.06;100.00;63404.56;10428100;28;20056;-78
2023/07/07 18:44:27;;;;;;;0.08;0.08;;;;;;;-145.06;100.00;63404.56;10425593;28;20025;-78
2023/07/07 18:49:27;;;;;;;0.00;0.00;;;;;;;-145.06;100.00;63404.56;10435244;28;20398;-78
2023/07/07 18:54:27;;;;;;;0.00;0.00;;;;;;;-145.06;100.00;63404.56;10421596;28;20056;-78
2023/07/07 18:59:28;;;;;;;0.10;0.10;;;;;;;-145.06;100.00;63404.56;10422265;28;20038;-78
2023/07/07 19:04:28;;;;;;;0.00;0.00;;;;;;;-145.06;100.00;63404.56;10438187;28;20017;-78
2023/07/07 19:09:28;;;;;;;0.00;0.00;;;;;;;-145.06;100.00;63404.56;10419968;28;20028;-78
2023/07/07 19:14:28;;;;;;;0.10;0.10;;;;;;;-145.06;100.00;63404.56;10369623;23;20129;-78
2023/07/07 19:19:29;;;;;;;0.10;0.10;;;;;;;-145.06;100.00;63404.56;10344302;28;20044;-80
2023/07/07 19:24:29;;;;;;;0.10;0.10;;;;;;;-145.06;100.00;63404.56;10346417;28;20507;-81
2023/07/07 19:29:29;;;;;;;0.10;0.10;;;;;;;-145.06;100.00;63404.56;10343532;28;20398;-79
2023/07/07 19:34:30;;;;;;;0.10;0.10;;;;;;;-145.06;100.00;63404.56;10342457;28;20737;-80
2023/07/07 19:39:30;;;;;;;0.10;0.10;;;;;;;-145.06;100.00;63404.56;10345295;28;20269;-79
2023/07/07 19:44:30;;;;;;;0.10;0.10;;;;;;;-145.06;100.00;63404.56;10356427;28;20475;-79
2023/07/07 19:49:31;;;;;;;0.00;0.00;;;;;;;-145.06;100.00;63404.56;10362265;28;20030;-79
2023/07/07 19:54:31;;;;;;;0.10;0.10;;;;;;;-145.06;100.00;63404.56;10346986;28;20031;-79
2023/07/07 19:59:31;;;;;;;0.10;0.10;;;;;;;-145.06;100.00;63404.56;10349865;28;20105;-79
2023/07/07 20:04:31;;;;;;;0.10;0.10;;;;;;;-145.06;100.00;63404.56;10355108;28;20022;-79
2023/07/07 20:09:32;;;;;;;0.10;0.10;;;;;;;-145.06;100.00;63404.56;10346874;28;20030;-79
2023/07/07 20:14:33;;;;;;;0.10;0.10;;;;;;;-145.06;100.00;63404.56;10341998;28;20030;-80
2023/07/07 20:19:33;;;;;;;0.10;0.10;;;;;;;-145.06;100.00;63404.56;10352468;28;20133;-80
2023/07/07 20:24:34;;;;;;;0.10;0.10;;;;;;;-145.06;100.00;63404.56;10344575;28;20090;-80
2023/07/07 20:29:34;;;;;;;0.10;0.10;;;;;;;-145.06;100.00;63404.56;10349602;28;20267;-79
2023/07/07 20:34:34;;;;;;;0.10;0.10;;;;;;;-145.06;100.00;63404.56;10342505;28;20025;-80
2023/07/07 20:39:34;;;;;;;0.10;0.10;;;;;;;-145.06;100.00;63404.56;10347255;28;20066;-80
2023/07/07 20:44:35;;;;;;;0.10;0.10;;;;;;;-145.06;100.00;63404.56;10340760;28;20041;-80
2023/07/07 20:49:35;;;;;;;0.10;0.10;;;;;;;-145.06;100.00;63404.56;10339808;28;20030;-80
2023/07/07 20:54:35;;;;;;;0.10;0.10;;;;;;;-145.06;100.00;63404.56;10354707;28;20051;-80
2023/07/07 20:59:35;;;;;;;0.10;0.10;;;;;;;-145.06;100.00;63404.56;10346052;28;20040;-79
2023/07/07 21:04:36;;;;;;;0.10;0.10;;;;;;;-145.06;100.00;63404.56;10358060;28;20041;-80
2023/07/07 21:09:36;;;;;;;0.10;0.10;;;;;;;-145.06;100.00;63404.56;10336290;28;20026;-79
2023/07/07 21:14:37;;;;;;;0.10;0.10;;;;;;;-145.06;100.00;63404.56;10345421;28;20162;-79
2023/07/07 21:19:37;;;;;;;0.10;0.10;;;;;;;-145.06;100.00;63404.56;10336048;28;20411;-79
2023/07/07 21:24:37;;;;;;;0.10;0.10;;;;;;;-145.06;100.00;63404.56;10346741;28;20029;-80
2023/07/07 21:29:41;;;;;;;0.10;0.10;;;;;;;-145.06;100.00;63404.56;10354089;28;20030;-80
2023/07/07 21:34:42;;;;;;;0.10;0.10;;;;;;;-145.06;100.00;63404.56;10343697;28;20030;-79
2023/07/07 21:39:42;;;;;;;0.10;0.10;;;;;;;-145.06;100.00;63404.56;10342849;28;20026;-79
2023/07/07 21:44:43;;;;;;;0.10;0.10;;;;;;;-145.06;100.00;63404.56;10340939;28;20029;-79
2023/07/07 21:49:46;;;;;;;0.10;0.10;;;;;;;-145.06;100.00;63404.56;10354227;28;20122;-79
2023/07/07 21:54:46;;;;;;;0.10;0.10;;;;;;;-145.06;100.00;63404.56;10348986;28;20038;-79
2023/07/07 21:59:46;;;;;;;0.10;0.10;;;;;;;-145.06;100.00;63404.56;10349420;28;20041;-79
2023/07/07 22:04:47;;;;;;;0.10;0.10;;;;;;;-145.06;100.00;63404.56;10342893;28;20031;-80
2023/07/07 22:09:47;;;;;;;0.10;0.10;;;;;;;-145.06;100.00;63404.56;10349738;28;20030;-80
2023/07/07 22:14:47;;;;;;;0.10;0.10;;;;;;;-145.06;100.00;63404.56;10342068;28;20032;-79
2023/07/07 22:19:48;;;;;;;0.10;0.10;;;;;;;-145.06;100.00;63404.56;10342061;28;20107;-79
2023/07/07 22:24:48;;;;;;;0.10;0.10;;;;;;;-145.06;100.00;63404.56;10343441;28;20073;-80
2023/07/07 22:29:48;;;;;;;0.10;0.10;;;;;;;-145.06;100.00;63404.56;10346928;28;20294;-80
2023/07/07 22:34:49;;;;;;;0.10;0.10;;;;;;;-145.06;100.00;63404.56;10344172;28;20026;-80
2023/07/07 22:39:49;;;;;;;0.10;0.10;;;;;;;-145.06;100.00;63404.56;10339092;28;20097;-80
2023/07/07 22:44:49;;;;;;;0.10;0.10;;;;;;;-145.06;100.00;63404.56;10349814;28;20117;-80
2023/07/07 22:49:49;;;;;;;0.10;0.10;;;;;;;-145.06;100.00;63404.56;10353495;28;20030;-79